sensor_id;sensor_type;location;lat;lon;timestamp;P1;durP1;ratioP1;P2;durP2;ratioP2
82186;SDS011;71776;52.042;8.160;2023-09-19T00:00:58;5.75;;;3.40;;
82186;SDS011;71776;52.042;8.160;2023-09-19T00:03:25;5.20;;;3.10;;
82186;SDS011;71776;52.042;8.160;2023-09-19T00:05:50;3.95;;;3.15;;
82186;SDS011;71776;52.042;8.160;2023-09-19T00:08:16;5.47;;;3.30;;
82186;SDS011;71776;52.042;8.160;2023-09-19T00:10:42;4.07;;;3.10;;
82186;SDS011;71776;52.042;8.160;2023-09-19T00:13:08;6.10;;;3.50;;
82186;SDS011;71776;52.042;8.160;2023-09-19T00:15:36;6.75;;;3.35;;
82186;SDS011;71776;52.042;8.160;2023-09-19T00:18:03;3.25;;;2.95;;
82186;SDS011;71776;52.042;8.160;2023-09-19T00:20:30;5.53;;;3.33;;
82186;SDS011;71776;52.042;8.160;2023-09-19T00:22:55;6.53;;;3.50;;
82186;SDS011;71776;52.042;8.160;2023-09-19T00:25:21;5.68;;;2.65;;
82186;SDS011;71776;52.042;8.160;2023-09-19T00:27:46;4.45;;;3.28;;
82186;SDS011;71776;52.042;8.160;2023-09-19T00:30:12;6.03;;;3.25;;
82186;SDS011;71776;52.042;8.160;2023-09-19T00:32:38;4.47;;;3.15;;
82186;SDS011;71776;52.042;8.160;2023-09-19T00:35:04;6.10;;;4.10;;
82186;SDS011;71776;52.042;8.160;2023-09-19T00:37:32;5.95;;;3.90;;
82186;SDS011;71776;52.042;8.160;2023-09-19T00:39:57;6.15;;;3.50;;
82186;SDS011;71776;52.042;8.160;2023-09-19T00:42:23;5.20;;;3.50;;
82186;SDS011;71776;52.042;8.160;2023-09-19T00:44:48;4.85;;;3.50;;
82186;SDS011;71776;52.042;8.160;2023-09-19T00:47:14;3.63;;;3.20;;
82186;SDS011;71776;52.042;8.160;2023-09-19T00:49:39;7.45;;;3.50;;
82186;SDS011;71776;52.042;8.160;2023-09-19T00:52:05;4.25;;;3.53;;
82186;SDS011;71776;52.042;8.160;2023-09-19T00:54:33;7.93;;;3.65;;
82186;SDS011;71776;52.042;8.160;2023-09-19T00:56:59;7.38;;;3.03;;
82186;SDS011;71776;52.042;8.160;2023-09-19T00:59:25;3.83;;;2.65;;
82186;SDS011;71776;52.042;8.160;2023-09-19T01:01:50;4.97;;;2.80;;
82186;SDS011;71776;52.042;8.160;2023-09-19T01:04:18;6.47;;;2.83;;
82186;SDS011;71776;52.042;8.160;2023-09-19T01:06:43;4.03;;;2.47;;
82186;SDS011;71776;52.042;8.160;2023-09-19T01:09:09;7.22;;;3.30;;
82186;SDS011;71776;52.042;8.160;2023-09-19T01:11:38;5.65;;;2.70;;
82186;SDS011;71776;52.042;8.160;2023-09-19T01:14:13;3.38;;;3.08;;
82186;SDS011;71776;52.042;8.160;2023-09-19T01:16:47;5.35;;;3.10;;
82186;SDS011;71776;52.042;8.160;2023-09-19T01:22:26;6.75;;;3.00;;
82186;SDS011;71776;52.042;8.160;2023-09-19T01:28:19;10.35;;;3.35;;
82186;SDS011;71776;52.042;8.160;2023-09-19T01:30:56;4.60;;;2.30;;
82186;SDS011;71776;52.042;8.160;2023-09-19T01:33:22;13.03;;;2.70;;
82186;SDS011;71776;52.042;8.160;2023-09-19T01:35:48;5.40;;;2.20;;
82186;SDS011;71776;52.042;8.160;2023-09-19T01:38:13;7.03;;;2.83;;
82186;SDS011;71776;52.042;8.160;2023-09-19T01:40:40;6.90;;;2.80;;
82186;SDS011;71776;52.042;8.160;2023-09-19T01:43:08;5.82;;;2.55;;
82186;SDS011;71776;52.042;8.160;2023-09-19T01:45:40;7.00;;;2.33;;
82186;SDS011;71776;52.042;8.160;2023-09-19T01:48:15;7.35;;;2.88;;
82186;SDS011;71776;52.042;8.160;2023-09-19T01:50:50;12.30;;;2.38;;
82186;SDS011;71776;52.042;8.160;2023-09-19T01:53:23;5.88;;;2.50;;
82186;SDS011;71776;52.042;8.160;2023-09-19T01:55:52;8.50;;;2.70;;
82186;SDS011;71776;52.042;8.160;2023-09-19T01:58:20;7.25;;;2.30;;
82186;SDS011;71776;52.042;8.160;2023-09-19T02:00:51;5.05;;;2.28;;
82186;SDS011;71776;52.042;8.160;2023-09-19T02:03:21;9.77;;;2.47;;
82186;SDS011;71776;52.042;8.160;2023-09-19T02:05:48;9.88;;;2.50;;
82186;SDS011;71776;52.042;8.160;2023-09-19T02:08:15;6.32;;;2.60;;
82186;SDS011;71776;52.042;8.160;2023-09-19T02:10:42;5.95;;;2.30;;
82186;SDS011;71776;52.042;8.160;2023-09-19T02:13:07;7.82;;;2.50;;
82186;SDS011;71776;52.042;8.160;2023-09-19T02:15:33;5.60;;;2.70;;
82186;SDS011;71776;52.042;8.160;2023-09-19T02:17:58;7.70;;;2.38;;
82186;SDS011;71776;52.042;8.160;2023-09-19T02:20:25;8.90;;;2.63;;
82186;SDS011;71776;52.042;8.160;2023-09-19T02:22:51;5.30;;;3.00;;
82186;SDS011;71776;52.042;8.160;2023-09-19T02:25:16;8.07;;;2.63;;
82186;SDS011;71776;52.042;8.160;2023-09-19T02:27:42;8.63;;;2.83;;
82186;SDS011;71776;52.042;8.160;2023-09-19T02:30:07;7.90;;;2.95;;
82186;SDS011;71776;52.042;8.160;2023-09-19T02:32:33;7.40;;;2.97;;
82186;SDS011;71776;52.042;8.160;2023-09-19T02:34:59;12.38;;;2.85;;
82186;SDS011;71776;52.042;8.160;2023-09-19T02:37:26;6.60;;;2.95;;
82186;SDS011;71776;52.042;8.160;2023-09-19T02:39:51;6.18;;;2.67;;
82186;SDS011;71776;52.042;8.160;2023-09-19T02:42:17;10.02;;;3.08;;
82186;SDS011;71776;52.042;8.160;2023-09-19T02:44:42;7.75;;;2.67;;
82186;SDS011;71776;52.042;8.160;2023-09-19T02:47:08;8.95;;;3.00;;
82186;SDS011;71776;52.042;8.160;2023-09-19T02:49:34;8.02;;;2.60;;
82186;SDS011;71776;52.042;8.160;2023-09-19T02:51:59;8.48;;;3.25;;
82186;SDS011;71776;52.042;8.160;2023-09-19T02:54:26;4.00;;;2.50;;
82186;SDS011;71776;52.042;8.160;2023-09-19T02:56:52;12.02;;;3.35;;
82186;SDS011;71776;52.042;8.160;2023-09-19T02:59:17;8.70;;;3.15;;
82186;SDS011;71776;52.042;8.160;2023-09-19T03:01:43;11.30;;;3.63;;
82186;SDS011;71776;52.042;8.160;2023-09-19T03:04:08;6.43;;;3.15;;
82186;SDS011;71776;52.042;8.160;2023-09-19T03:06:34;10.85;;;2.80;;
82186;SDS011;71776;52.042;8.160;2023-09-19T03:08:59;9.18;;;3.90;;
82186;SDS011;71776;52.042;8.160;2023-09-19T03:11:26;12.15;;;3.78;;
82186;SDS011;71776;52.042;8.160;2023-09-19T03:13:52;9.23;;;3.35;;
82186;SDS011;71776;52.042;8.160;2023-09-19T03:16:18;8.10;;;3.17;;
82186;SDS011;71776;52.042;8.160;2023-09-19T03:18:43;7.75;;;3.17;;
82186;SDS011;71776;52.042;8.160;2023-09-19T03:21:09;9.80;;;3.20;;
82186;SDS011;71776;52.042;8.160;2023-09-19T03:23:34;6.63;;;3.80;;
82186;SDS011;71776;52.042;8.160;2023-09-19T03:26:00;5.40;;;3.40;;
82186;SDS011;71776;52.042;8.160;2023-09-19T03:28:27;8.45;;;2.95;;
82186;SDS011;71776;52.042;8.160;2023-09-19T03:30:59;6.13;;;2.40;;
82186;SDS011;71776;52.042;8.160;2023-09-19T03:33:25;8.50;;;2.58;;
82186;SDS011;71776;52.042;8.160;2023-09-19T03:35:51;6.00;;;2.30;;
82186;SDS011;71776;52.042;8.160;2023-09-19T03:38:17;9.70;;;3.00;;
82186;SDS011;71776;52.042;8.160;2023-09-19T03:40:43;7.20;;;2.45;;
82186;SDS011;71776;52.042;8.160;2023-09-19T03:43:09;11.00;;;2.80;;
82186;SDS011;71776;52.042;8.160;2023-09-19T03:45:36;6.35;;;2.55;;
82186;SDS011;71776;52.042;8.160;2023-09-19T03:48:01;4.55;;;2.10;;
82186;SDS011;71776;52.042;8.160;2023-09-19T03:50:33;11.60;;;2.30;;
82186;SDS011;71776;52.042;8.160;2023-09-19T03:52:58;5.43;;;2.13;;
82186;SDS011;71776;52.042;8.160;2023-09-19T03:55:24;5.55;;;2.63;;
82186;SDS011;71776;52.042;8.160;2023-09-19T03:57:49;10.13;;;2.75;;
82186;SDS011;71776;52.042;8.160;2023-09-19T04:00:15;8.45;;;2.70;;
82186;SDS011;71776;52.042;8.160;2023-09-19T04:02:42;7.65;;;2.47;;
82186;SDS011;71776;52.042;8.160;2023-09-19T04:05:07;7.05;;;2.20;;
82186;SDS011;71776;52.042;8.160;2023-09-19T04:07:33;12.60;;;2.85;;
82186;SDS011;71776;52.042;8.160;2023-09-19T04:09:59;10.07;;;2.50;;
82186;SDS011;71776;52.042;8.160;2023-09-19T04:12:24;4.20;;;1.92;;
82186;SDS011;71776;52.042;8.160;2023-09-19T04:14:49;9.60;;;2.75;;
82186;SDS011;71776;52.042;8.160;2023-09-19T04:17:15;7.10;;;2.50;;
82186;SDS011;71776;52.042;8.160;2023-09-19T04:19:42;8.88;;;3.33;;
82186;SDS011;71776;52.042;8.160;2023-09-19T04:22:08;5.32;;;2.22;;
82186;SDS011;71776;52.042;8.160;2023-09-19T04:24:34;8.95;;;2.58;;
82186;SDS011;71776;52.042;8.160;2023-09-19T04:26:59;8.95;;;2.45;;
82186;SDS011;71776;52.042;8.160;2023-09-19T04:29:25;6.32;;;2.15;;
82186;SDS011;71776;52.042;8.160;2023-09-19T04:31:50;7.18;;;2.45;;
82186;SDS011;71776;52.042;8.160;2023-09-19T04:34:15;4.50;;;2.30;;
82186;SDS011;71776;52.042;8.160;2023-09-19T04:36:43;6.25;;;2.55;;
82186;SDS011;71776;52.042;8.160;2023-09-19T04:39:08;8.57;;;3.08;;
82186;SDS011;71776;52.042;8.160;2023-09-19T04:41:34;5.65;;;2.05;;
82186;SDS011;71776;52.042;8.160;2023-09-19T04:43:59;7.57;;;2.97;;
82186;SDS011;71776;52.042;8.160;2023-09-19T04:46:25;7.07;;;2.00;;
82186;SDS011;71776;52.042;8.160;2023-09-19T04:48:50;7.40;;;2.85;;
82186;SDS011;71776;52.042;8.160;2023-09-19T04:51:16;6.65;;;2.40;;
82186;SDS011;71776;52.042;8.160;2023-09-19T04:53:43;8.60;;;2.58;;
82186;SDS011;71776;52.042;8.160;2023-09-19T04:56:08;12.70;;;2.83;;
82186;SDS011;71776;52.042;8.160;2023-09-19T04:58:34;5.05;;;2.70;;
82186;SDS011;71776;52.042;8.160;2023-09-19T05:00:59;6.70;;;2.20;;
82186;SDS011;71776;52.042;8.160;2023-09-19T05:03:25;7.15;;;2.35;;
82186;SDS011;71776;52.042;8.160;2023-09-19T05:05:51;6.90;;;2.20;;
82186;SDS011;71776;52.042;8.160;2023-09-19T05:08:16;7.10;;;2.33;;
82186;SDS011;71776;52.042;8.160;2023-09-19T05:10:43;8.00;;;2.55;;
82186;SDS011;71776;52.042;8.160;2023-09-19T05:13:08;13.30;;;2.88;;
82186;SDS011;71776;52.042;8.160;2023-09-19T05:15:34;7.82;;;3.45;;
82186;SDS011;71776;52.042;8.160;2023-09-19T05:18:00;7.93;;;2.67;;
82186;SDS011;71776;52.042;8.160;2023-09-19T05:20:26;5.65;;;2.28;;
82186;SDS011;71776;52.042;8.160;2023-09-19T05:22:57;6.35;;;1.98;;
82186;SDS011;71776;52.042;8.160;2023-09-19T05:25:22;7.50;;;2.63;;
82186;SDS011;71776;52.042;8.160;2023-09-19T05:27:49;7.60;;;2.58;;
82186;SDS011;71776;52.042;8.160;2023-09-19T05:30:18;4.10;;;2.95;;
82186;SDS011;71776;52.042;8.160;2023-09-19T05:32:43;6.43;;;2.53;;
82186;SDS011;71776;52.042;8.160;2023-09-19T05:35:09;6.18;;;2.53;;
82186;SDS011;71776;52.042;8.160;2023-09-19T05:37:34;10.77;;;2.90;;
82186;SDS011;71776;52.042;8.160;2023-09-19T05:40:00;6.07;;;2.72;;
82186;SDS011;71776;52.042;8.160;2023-09-19T05:42:26;6.13;;;2.55;;
82186;SDS011;71776;52.042;8.160;2023-09-19T05:44:53;10.40;;;3.15;;
82186;SDS011;71776;52.042;8.160;2023-09-19T05:47:18;6.60;;;3.08;;
82186;SDS011;71776;52.042;8.160;2023-09-19T05:49:43;6.75;;;2.55;;
82186;SDS011;71776;52.042;8.160;2023-09-19T05:52:09;10.02;;;3.55;;
82186;SDS011;71776;52.042;8.160;2023-09-19T05:54:34;7.95;;;2.30;;
82186;SDS011;71776;52.042;8.160;2023-09-19T05:57:00;7.35;;;2.75;;
82186;SDS011;71776;52.042;8.160;2023-09-19T05:59:26;11.82;;;2.40;;
82186;SDS011;71776;52.042;8.160;2023-09-19T06:01:52;7.93;;;2.63;;
82186;SDS011;71776;52.042;8.160;2023-09-19T06:04:18;6.70;;;2.42;;
82186;SDS011;71776;52.042;8.160;2023-09-19T06:06:43;6.13;;;2.22;;
82186;SDS011;71776;52.042;8.160;2023-09-19T06:09:09;8.55;;;2.83;;
82186;SDS011;71776;52.042;8.160;2023-09-19T06:11:34;8.40;;;2.53;;
82186;SDS011;71776;52.042;8.160;2023-09-19T06:14:00;11.48;;;3.10;;
82186;SDS011;71776;52.042;8.160;2023-09-19T06:16:25;5.32;;;2.63;;
82186;SDS011;71776;52.042;8.160;2023-09-19T06:18:52;6.82;;;2.40;;
82186;SDS011;71776;52.042;8.160;2023-09-19T06:21:18;6.10;;;2.65;;
82186;SDS011;71776;52.042;8.160;2023-09-19T06:23:43;6.65;;;2.10;;
82186;SDS011;71776;52.042;8.160;2023-09-19T06:26:09;5.75;;;2.17;;
82186;SDS011;71776;52.042;8.160;2023-09-19T06:28:34;6.18;;;2.67;;
82186;SDS011;71776;52.042;8.160;2023-09-19T06:31:01;5.57;;;2.60;;
82186;SDS011;71776;52.042;8.160;2023-09-19T06:33:27;4.88;;;2.70;;
82186;SDS011;71776;52.042;8.160;2023-09-19T06:35:54;6.22;;;2.47;;
82186;SDS011;71776;52.042;8.160;2023-09-19T06:38:19;5.60;;;2.30;;
82186;SDS011;71776;52.042;8.160;2023-09-19T06:40:45;7.88;;;2.75;;
82186;SDS011;71776;52.042;8.160;2023-09-19T06:43:10;6.72;;;2.47;;
82186;SDS011;71776;52.042;8.160;2023-09-19T06:45:36;8.15;;;3.53;;
82186;SDS011;71776;52.042;8.160;2023-09-19T06:48:02;5.18;;;2.10;;
82186;SDS011;71776;52.042;8.160;2023-09-19T06:50:28;7.65;;;2.28;;
82186;SDS011;71776;52.042;8.160;2023-09-19T06:52:55;4.90;;;2.15;;
82186;SDS011;71776;52.042;8.160;2023-09-19T06:55:21;10.85;;;2.60;;
82186;SDS011;71776;52.042;8.160;2023-09-19T06:57:47;5.97;;;2.33;;
82186;SDS011;71776;52.042;8.160;2023-09-19T07:00:13;6.57;;;2.60;;
82186;SDS011;71776;52.042;8.160;2023-09-19T07:02:40;4.80;;;2.00;;
82186;SDS011;71776;52.042;8.160;2023-09-19T07:05:05;9.27;;;2.58;;
82186;SDS011;71776;52.042;8.160;2023-09-19T07:07:31;7.45;;;2.40;;
82186;SDS011;71776;52.042;8.160;2023-09-19T07:09:58;9.85;;;2.10;;
82186;SDS011;71776;52.042;8.160;2023-09-19T07:12:23;8.77;;;2.80;;
82186;SDS011;71776;52.042;8.160;2023-09-19T07:14:49;12.65;;;2.90;;
82186;SDS011;71776;52.042;8.160;2023-09-19T07:17:14;7.40;;;2.47;;
82186;SDS011;71776;52.042;8.160;2023-09-19T07:19:40;4.43;;;2.00;;
82186;SDS011;71776;52.042;8.160;2023-09-19T07:22:05;7.53;;;2.40;;
82186;SDS011;71776;52.042;8.160;2023-09-19T07:24:31;9.38;;;3.30;;
82186;SDS011;71776;52.042;8.160;2023-09-19T07:26:58;8.93;;;2.75;;
82186;SDS011;71776;52.042;8.160;2023-09-19T07:29:23;7.88;;;2.45;;
82186;SDS011;71776;52.042;8.160;2023-09-19T07:31:48;7.20;;;2.70;;
82186;SDS011;71776;52.042;8.160;2023-09-19T07:34:14;5.72;;;2.55;;
82186;SDS011;71776;52.042;8.160;2023-09-19T07:36:40;4.97;;;2.55;;
82186;SDS011;71776;52.042;8.160;2023-09-19T07:39:05;6.45;;;2.80;;
82186;SDS011;71776;52.042;8.160;2023-09-19T07:41:30;5.28;;;2.15;;
82186;SDS011;71776;52.042;8.160;2023-09-19T07:43:57;11.68;;;2.33;;
82186;SDS011;71776;52.042;8.160;2023-09-19T07:46:23;5.05;;;2.20;;
82186;SDS011;71776;52.042;8.160;2023-09-19T07:48:48;5.63;;;2.33;;
82186;SDS011;71776;52.042;8.160;2023-09-19T07:51:14;4.97;;;2.30;;
82186;SDS011;71776;52.042;8.160;2023-09-19T07:53:39;6.75;;;2.25;;
82186;SDS011;71776;52.042;8.160;2023-09-19T07:56:05;6.90;;;2.65;;
82186;SDS011;71776;52.042;8.160;2023-09-19T07:58:32;5.40;;;2.17;;
82186;SDS011;71776;52.042;8.160;2023-09-19T08:01:03;6.75;;;2.10;;
82186;SDS011;71776;52.042;8.160;2023-09-19T08:03:29;6.15;;;3.60;;
82186;SDS011;71776;52.042;8.160;2023-09-19T08:05:55;5.85;;;2.75;;
82186;SDS011;71776;52.042;8.160;2023-09-19T08:08:21;7.85;;;3.00;;
82186;SDS011;71776;52.042;8.160;2023-09-19T08:10:52;9.18;;;2.45;;
82186;SDS011;71776;52.042;8.160;2023-09-19T08:13:18;6.93;;;2.20;;
82186;SDS011;71776;52.042;8.160;2023-09-19T08:15:43;6.75;;;2.33;;
82186;SDS011;71776;52.042;8.160;2023-09-19T08:18:10;6.03;;;2.15;;
82186;SDS011;71776;52.042;8.160;2023-09-19T08:20:36;5.30;;;2.15;;
82186;SDS011;71776;52.042;8.160;2023-09-19T08:23:01;2.83;;;1.80;;
82186;SDS011;71776;52.042;8.160;2023-09-19T08:25:27;5.95;;;2.70;;
82186;SDS011;71776;52.042;8.160;2023-09-19T08:27:54;6.68;;;2.40;;
82186;SDS011;71776;52.042;8.160;2023-09-19T08:30:20;4.75;;;2.30;;
82186;SDS011;71776;52.042;8.160;2023-09-19T08:32:47;5.75;;;2.90;;
82186;SDS011;71776;52.042;8.160;2023-09-19T08:35:14;7.18;;;2.30;;
82186;SDS011;71776;52.042;8.160;2023-09-19T08:37:40;8.05;;;2.33;;
82186;SDS011;71776;52.042;8.160;2023-09-19T08:40:05;5.82;;;2.05;;
82186;SDS011;71776;52.042;8.160;2023-09-19T08:42:31;8.02;;;2.05;;
82186;SDS011;71776;52.042;8.160;2023-09-19T08:45:11;5.90;;;2.17;;
82186;SDS011;71776;52.042;8.160;2023-09-19T08:47:39;5.57;;;2.25;;
82186;SDS011;71776;52.042;8.160;2023-09-19T08:50:13;5.90;;;2.63;;
82186;SDS011;71776;52.042;8.160;2023-09-19T08:52:49;6.63;;;2.40;;
82186;SDS011;71776;52.042;8.160;2023-09-19T08:55:17;8.60;;;2.45;;
82186;SDS011;71776;52.042;8.160;2023-09-19T08:57:44;6.95;;;2.50;;
82186;SDS011;71776;52.042;8.160;2023-09-19T09:00:11;8.00;;;2.75;;
82186;SDS011;71776;52.042;8.160;2023-09-19T09:02:37;4.72;;;2.70;;
82186;SDS011;71776;52.042;8.160;2023-09-19T09:05:04;5.60;;;2.65;;
82186;SDS011;71776;52.042;8.160;2023-09-19T09:07:32;7.32;;;2.60;;
82186;SDS011;71776;52.042;8.160;2023-09-19T09:09:58;7.70;;;2.85;;
82186;SDS011;71776;52.042;8.160;2023-09-19T09:12:24;8.18;;;2.72;;
82186;SDS011;71776;52.042;8.160;2023-09-19T09:14:50;7.43;;;3.42;;
82186;SDS011;71776;52.042;8.160;2023-09-19T09:17:16;8.32;;;3.35;;
82186;SDS011;71776;52.042;8.160;2023-09-19T09:19:41;10.25;;;3.08;;
82186;SDS011;71776;52.042;8.160;2023-09-19T09:22:07;6.18;;;2.92;;
82186;SDS011;71776;52.042;8.160;2023-09-19T09:24:35;9.70;;;3.58;;
82186;SDS011;71776;52.042;8.160;2023-09-19T09:27:00;8.50;;;3.00;;
82186;SDS011;71776;52.042;8.160;2023-09-19T09:29:42;8.23;;;3.10;;
82186;SDS011;71776;52.042;8.160;2023-09-19T09:32:18;5.97;;;2.97;;
82186;SDS011;71776;52.042;8.160;2023-09-19T09:34:48;6.95;;;3.00;;
82186;SDS011;71776;52.042;8.160;2023-09-19T09:37:15;8.77;;;3.17;;
82186;SDS011;71776;52.042;8.160;2023-09-19T09:39:43;7.65;;;2.75;;
82186;SDS011;71776;52.042;8.160;2023-09-19T09:42:15;7.55;;;2.63;;
82186;SDS011;71776;52.042;8.160;2023-09-19T09:44:58;5.47;;;2.60;;
82186;SDS011;71776;52.042;8.160;2023-09-19T09:47:41;8.70;;;3.05;;
82186;SDS011;71776;52.042;8.160;2023-09-19T09:50:07;9.05;;;3.60;;
82186;SDS011;71776;52.042;8.160;2023-09-19T09:52:43;10.30;;;3.13;;
82186;SDS011;71776;52.042;8.160;2023-09-19T09:55:11;4.82;;;2.58;;
82186;SDS011;71776;52.042;8.160;2023-09-19T09:57:36;5.88;;;3.10;;
82186;SDS011;71776;52.042;8.160;2023-09-19T10:00:02;8.63;;;2.92;;
82186;SDS011;71776;52.042;8.160;2023-09-19T10:02:29;6.90;;;3.08;;
82186;SDS011;71776;52.042;8.160;2023-09-19T10:04:55;9.75;;;3.10;;
82186;SDS011;71776;52.042;8.160;2023-09-19T10:07:25;6.82;;;2.75;;
82186;SDS011;71776;52.042;8.160;2023-09-19T10:09:51;10.17;;;3.67;;
82186;SDS011;71776;52.042;8.160;2023-09-19T10:12:18;8.27;;;3.22;;
82186;SDS011;71776;52.042;8.160;2023-09-19T10:14:45;7.97;;;2.80;;
82186;SDS011;71776;52.042;8.160;2023-09-19T10:17:11;7.05;;;3.00;;
82186;SDS011;71776;52.042;8.160;2023-09-19T10:19:41;10.05;;;3.35;;
82186;SDS011;71776;52.042;8.160;2023-09-19T10:22:11;6.88;;;2.80;;
82186;SDS011;71776;52.042;8.160;2023-09-19T10:24:37;5.70;;;3.00;;
82186;SDS011;71776;52.042;8.160;2023-09-19T10:27:04;6.47;;;2.88;;
82186;SDS011;71776;52.042;8.160;2023-09-19T10:29:33;6.38;;;2.67;;
82186;SDS011;71776;52.042;8.160;2023-09-19T10:32:01;10.68;;;2.83;;
82186;SDS011;71776;52.042;8.160;2023-09-19T10:34:28;7.60;;;2.88;;
82186;SDS011;71776;52.042;8.160;2023-09-19T10:36:55;5.00;;;2.50;;
82186;SDS011;71776;52.042;8.160;2023-09-19T10:39:20;9.75;;;3.40;;
82186;SDS011;71776;52.042;8.160;2023-09-19T10:41:50;4.13;;;2.10;;
82186;SDS011;71776;52.042;8.160;2023-09-19T10:44:16;9.48;;;3.08;;
82186;SDS011;71776;52.042;8.160;2023-09-19T10:46:46;9.45;;;3.40;;
82186;SDS011;71776;52.042;8.160;2023-09-19T10:49:11;6.72;;;2.72;;
82186;SDS011;71776;52.042;8.160;2023-09-19T10:51:39;5.13;;;2.60;;
82186;SDS011;71776;52.042;8.160;2023-09-19T10:54:06;5.82;;;2.55;;
82186;SDS011;71776;52.042;8.160;2023-09-19T10:56:37;10.07;;;2.97;;
82186;SDS011;71776;52.042;8.160;2023-09-19T10:59:07;4.25;;;2.30;;
82186;SDS011;71776;52.042;8.160;2023-09-19T11:01:42;3.83;;;2.37;;
82186;SDS011;71776;52.042;8.160;2023-09-19T11:04:21;6.28;;;3.00;;
82186;SDS011;71776;52.042;8.160;2023-09-19T11:06:58;5.47;;;2.22;;
82186;SDS011;71776;52.042;8.160;2023-09-19T11:09:25;10.75;;;2.63;;
82186;SDS011;71776;52.042;8.160;2023-09-19T11:12:08;7.05;;;2.70;;
82186;SDS011;71776;52.042;8.160;2023-09-19T11:14:41;5.93;;;2.40;;
82186;SDS011;71776;52.042;8.160;2023-09-19T11:25:47;4.53;;;2.20;;
82186;SDS011;71776;52.042;8.160;2023-09-19T11:28:31;7.13;;;2.80;;
82186;SDS011;71776;52.042;8.160;2023-09-19T11:31:40;9.27;;;3.17;;
82186;SDS011;71776;52.042;8.160;2023-09-19T11:34:37;4.30;;;2.08;;
82186;SDS011;71776;52.042;8.160;2023-09-19T11:37:04;7.13;;;2.70;;
82186;SDS011;71776;52.042;8.160;2023-09-19T11:40:08;6.65;;;2.25;;
82186;SDS011;71776;52.042;8.160;2023-09-19T11:42:44;8.45;;;2.97;;
82186;SDS011;71776;52.042;8.160;2023-09-19T11:48:15;4.75;;;2.58;;
82186;SDS011;71776;52.042;8.160;2023-09-19T11:50:43;5.75;;;2.33;;
82186;SDS011;71776;52.042;8.160;2023-09-19T11:53:11;5.95;;;3.00;;
82186;SDS011;71776;52.042;8.160;2023-09-19T11:55:37;4.13;;;2.38;;
82186;SDS011;71776;52.042;8.160;2023-09-19T11:58:03;5.97;;;2.25;;
82186;SDS011;71776;52.042;8.160;2023-09-19T12:00:29;8.00;;;2.38;;
82186;SDS011;71776;52.042;8.160;2023-09-19T12:02:56;4.97;;;2.80;;
82186;SDS011;71776;52.042;8.160;2023-09-19T12:05:28;4.03;;;2.50;;
82186;SDS011;71776;52.042;8.160;2023-09-19T12:07:53;3.28;;;1.80;;
82186;SDS011;71776;52.042;8.160;2023-09-19T12:10:20;7.28;;;2.40;;
82186;SDS011;71776;52.042;8.160;2023-09-19T12:12:47;4.60;;;2.30;;
82186;SDS011;71776;52.042;8.160;2023-09-19T12:15:13;6.18;;;2.22;;
82186;SDS011;71776;52.042;8.160;2023-09-19T12:17:39;5.35;;;2.08;;
82186;SDS011;71776;52.042;8.160;2023-09-19T12:20:05;7.45;;;2.45;;
82186;SDS011;71776;52.042;8.160;2023-09-19T12:22:38;5.20;;;2.20;;
82186;SDS011;71776;52.042;8.160;2023-09-19T12:25:05;8.52;;;2.42;;
82186;SDS011;71776;52.042;8.160;2023-09-19T12:27:32;8.35;;;2.25;;
82186;SDS011;71776;52.042;8.160;2023-09-19T12:30:07;3.97;;;2.30;;
82186;SDS011;71776;52.042;8.160;2023-09-19T12:32:34;7.53;;;2.20;;
82186;SDS011;71776;52.042;8.160;2023-09-19T12:35:00;4.32;;;2.15;;
82186;SDS011;71776;52.042;8.160;2023-09-19T12:37:25;5.97;;;2.13;;
82186;SDS011;71776;52.042;8.160;2023-09-19T12:39:51;5.05;;;2.50;;
82186;SDS011;71776;52.042;8.160;2023-09-19T12:42:18;5.80;;;2.50;;
82186;SDS011;71776;52.042;8.160;2023-09-19T12:44:46;7.28;;;2.42;;
82186;SDS011;71776;52.042;8.160;2023-09-19T12:47:14;4.65;;;2.17;;
82186;SDS011;71776;52.042;8.160;2023-09-19T12:52:34;5.03;;;2.55;;
82186;SDS011;71776;52.042;8.160;2023-09-19T12:55:01;4.38;;;2.10;;
82186;SDS011;71776;52.042;8.160;2023-09-19T12:57:26;5.15;;;2.17;;
82186;SDS011;71776;52.042;8.160;2023-09-19T12:59:53;2.90;;;1.73;;
82186;SDS011;71776;52.042;8.160;2023-09-19T13:02:20;5.30;;;2.22;;
82186;SDS011;71776;52.042;8.160;2023-09-19T13:04:51;5.07;;;2.00;;
82186;SDS011;71776;52.042;8.160;2023-09-19T13:10:07;6.32;;;1.88;;
82186;SDS011;71776;52.042;8.160;2023-09-19T13:12:36;3.53;;;1.90;;
82186;SDS011;71776;52.042;8.160;2023-09-19T13:15:08;6.88;;;2.50;;
82186;SDS011;71776;52.042;8.160;2023-09-19T13:17:42;5.10;;;1.90;;
82186;SDS011;71776;52.042;8.160;2023-09-19T13:20:19;4.82;;;1.90;;
82186;SDS011;71776;52.042;8.160;2023-09-19T13:22:46;3.58;;;1.90;;
82186;SDS011;71776;52.042;8.160;2023-09-19T13:25:13;6.18;;;2.00;;
82186;SDS011;71776;52.042;8.160;2023-09-19T13:27:40;6.32;;;2.03;;
82186;SDS011;71776;52.042;8.160;2023-09-19T13:30:06;2.58;;;1.85;;
82186;SDS011;71776;52.042;8.160;2023-09-19T13:32:34;3.83;;;1.90;;
82186;SDS011;71776;52.042;8.160;2023-09-19T13:35:00;6.78;;;2.67;;
82186;SDS011;71776;52.042;8.160;2023-09-19T13:37:25;4.38;;;2.08;;
82186;SDS011;71776;52.042;8.160;2023-09-19T13:39:51;5.25;;;2.10;;
82186;SDS011;71776;52.042;8.160;2023-09-19T13:42:16;6.03;;;1.88;;
82186;SDS011;71776;52.042;8.160;2023-09-19T13:44:42;4.40;;;1.67;;
82186;SDS011;71776;52.042;8.160;2023-09-19T13:47:09;5.10;;;2.05;;
82186;SDS011;71776;52.042;8.160;2023-09-19T13:49:34;3.22;;;1.70;;
82186;SDS011;71776;52.042;8.160;2023-09-19T13:52:00;1.85;;;1.40;;
82186;SDS011;71776;52.042;8.160;2023-09-19T13:54:25;4.03;;;1.55;;
82186;SDS011;71776;52.042;8.160;2023-09-19T13:56:51;4.75;;;1.90;;
82186;SDS011;71776;52.042;8.160;2023-09-19T13:59:16;7.47;;;1.92;;
82186;SDS011;71776;52.042;8.160;2023-09-19T14:01:42;4.65;;;1.70;;
82186;SDS011;71776;52.042;8.160;2023-09-19T14:04:09;3.20;;;1.70;;
82186;SDS011;71776;52.042;8.160;2023-09-19T14:06:34;4.72;;;2.10;;
82186;SDS011;71776;52.042;8.160;2023-09-19T14:09:00;2.78;;;2.00;;
82186;SDS011;71776;52.042;8.160;2023-09-19T14:11:25;4.57;;;2.33;;
82186;SDS011;71776;52.042;8.160;2023-09-19T14:13:51;3.15;;;1.63;;
82186;SDS011;71776;52.042;8.160;2023-09-19T14:16:16;3.65;;;1.73;;
82186;SDS011;71776;52.042;8.160;2023-09-19T14:18:42;4.32;;;2.17;;
82186;SDS011;71776;52.042;8.160;2023-09-19T14:21:09;4.75;;;1.98;;
82186;SDS011;71776;52.042;8.160;2023-09-19T14:23:35;4.95;;;1.90;;
82186;SDS011;71776;52.042;8.160;2023-09-19T14:26:00;5.28;;;2.38;;
82186;SDS011;71776;52.042;8.160;2023-09-19T14:28:26;3.03;;;1.98;;
82186;SDS011;71776;52.042;8.160;2023-09-19T14:30:52;5.38;;;2.00;;
82186;SDS011;71776;52.042;8.160;2023-09-19T14:33:17;4.75;;;1.73;;
82186;SDS011;71776;52.042;8.160;2023-09-19T14:35:43;5.43;;;2.13;;
82186;SDS011;71776;52.042;8.160;2023-09-19T14:38:09;3.53;;;1.77;;
82186;SDS011;71776;52.042;8.160;2023-09-19T14:40:35;3.88;;;1.63;;
82186;SDS011;71776;52.042;8.160;2023-09-19T14:43:00;4.72;;;1.90;;
82186;SDS011;71776;52.042;8.160;2023-09-19T14:45:26;3.38;;;1.95;;
82186;SDS011;71776;52.042;8.160;2023-09-19T14:47:52;3.65;;;1.73;;
82186;SDS011;71776;52.042;8.160;2023-09-19T14:50:17;3.30;;;1.30;;
82186;SDS011;71776;52.042;8.160;2023-09-19T14:52:43;2.65;;;1.50;;
82186;SDS011;71776;52.042;8.160;2023-09-19T14:55:10;6.03;;;1.70;;
82186;SDS011;71776;52.042;8.160;2023-09-19T14:57:35;4.60;;;1.60;;
82186;SDS011;71776;52.042;8.160;2023-09-19T15:00:01;3.25;;;1.50;;
82186;SDS011;71776;52.042;8.160;2023-09-19T15:02:26;5.50;;;1.80;;
82186;SDS011;71776;52.042;8.160;2023-09-19T15:04:52;2.85;;;1.35;;
82186;SDS011;71776;52.042;8.160;2023-09-19T15:07:18;6.70;;;1.77;;
82186;SDS011;71776;52.042;8.160;2023-09-19T15:09:43;3.40;;;1.60;;